Terminal Aerodrome Forecast
Issued by NWS

Home | Current Version | Previous Version | Text Only | Print | Product List | Glossary On
Versions: 1 2 3 4 5 6 7 8 9 10 11 12 13 14 15 16 17 18 19 20 21 22 23 24 25 26 27 28 29 30 31 32 33 34 35 36 37 38 39 40 41 42 43 44 45 46 47 48
000
FTUS43 KMKX 020912 AAA
TAFUES
TAF AMD
KUES 020912Z 0209/0306 VRB03KT P6SM -SHRA BKN035 OVC070
     FM021100 16005KT P6SM VCSH SCT025 BKN035
     FM021600 17005KT P6SM SCT025 BKN040
     FM022000 16007KT P6SM VCTS SCT020 BKN040CB
     FM022300 12009KT 4SM -TSRA BR SCT006 OVC016CB
     FM030300 15005KT 3/4SM -SHRA BR VCTS OVC004CB=

USA.gov is the U.S. government's official web portal to all federal, state and local government web resources and services.